createdAt,value
2018-01-21T00:00:04.510Z,76.3
2018-01-21T00:15:05.114Z,76.5
2018-01-21T00:30:06.439Z,75.1
2018-01-21T00:45:04.813Z,75.1
2018-01-21T01:00:05.081Z,74.9
2018-01-21T01:15:05.157Z,74.7
2018-01-21T01:30:04.287Z,74.3
2018-01-21T01:45:04.843Z,73.9
2018-01-21T02:00:05.933Z,74.2
2018-01-21T02:15:04.634Z,74.2
2018-01-21T02:30:05.314Z,74
2018-01-21T02:45:04.822Z,73.7
2018-01-21T03:00:06.242Z,72.9
2018-01-21T03:15:04.697Z,73.4
2018-01-21T03:30:04.322Z,73.9
2018-01-21T03:45:04.882Z,73.1
2018-01-21T04:00:04.646Z,72.7
2018-01-21T04:15:05.044Z,71.7
2018-01-21T04:30:05.141Z,71.7
2018-01-21T04:45:07.600Z,72.4
2018-01-21T05:00:05.076Z,72.2
2018-01-21T05:15:04.819Z,72
2018-01-21T05:30:05.201Z,72.6
2018-01-21T05:45:05.062Z,72.7
2018-01-21T06:00:37.162Z,72.7
2018-01-21T06:15:04.543Z,72.1
2018-01-21T06:45:04.679Z,72
2018-01-21T07:00:04.489Z,72.3
2018-01-21T07:15:08.727Z,72.1
2018-01-21T07:30:04.290Z,71
2018-01-21T07:45:06.254Z,70.6
2018-01-21T08:00:05.354Z,70.4
2018-01-21T08:15:04.536Z,71.4
2018-01-21T08:30:04.673Z,70.4
2018-01-21T08:45:04.719Z,71.3
2018-01-21T09:00:05.725Z,70.6
2018-01-21T09:15:05.157Z,69.7
2018-01-21T09:30:05.320Z,70.3
2018-01-21T09:45:05.431Z,70.9
2018-01-21T10:00:04.308Z,70
2018-01-21T10:15:05.157Z,69.6
2018-01-21T10:30:05.307Z,69.2
2018-01-21T10:45:05.756Z,70.5
2018-01-21T11:00:08.344Z,68.6
2018-01-21T11:15:04.692Z,68.8
2018-01-21T11:30:05.941Z,68.3
2018-01-21T11:45:04.450Z,68.7
2018-01-21T12:15:06.576Z,68.8
2018-01-21T12:30:06.325Z,68
2018-01-21T12:45:05.326Z,67.7
2018-01-21T13:00:05.130Z,67.2
2018-01-21T13:15:05.263Z,66.4
2018-01-21T13:30:05.306Z,67.9
2018-01-21T13:45:04.818Z,65.3
2018-01-21T14:00:05.652Z,65.5
2018-01-21T14:15:05.314Z,65.8
2018-01-21T14:30:05.518Z,64.7
2018-01-21T14:45:05.815Z,64.5
2018-01-21T15:00:06.217Z,65.2
2018-01-21T15:15:04.741Z,65.8
2018-01-21T15:30:04.556Z,65.9
2018-01-21T15:45:04.652Z,65.8
2018-01-21T16:00:05.402Z,67.6
2018-01-21T16:15:05.901Z,66.7
2018-01-21T16:30:04.619Z,66.9
2018-01-21T16:45:05.311Z,67.6
2018-01-21T17:00:08.562Z,67.4
2018-01-21T17:15:05.851Z,68.2
2018-01-21T17:30:05.004Z,68.7
2018-01-21T17:45:04.418Z,68.7
2018-01-21T18:15:08.349Z,68.1
2018-01-21T18:30:05.704Z,69.1
2018-01-21T18:45:05.157Z,68.9
2018-01-21T19:00:05.270Z,69.3
2018-01-21T19:15:04.742Z,69.1
2018-01-21T19:30:04.955Z,69.3
2018-01-21T19:45:04.644Z,70.1
2018-01-21T20:00:05.792Z,70
2018-01-21T20:15:08.247Z,70
2018-01-21T20:30:05.566Z,70.1
2018-01-21T20:45:05.303Z,70.3
2018-01-21T21:00:05.392Z,70.2
2018-01-21T21:15:04.905Z,70.7
2018-01-21T21:30:04.953Z,70.6
2018-01-21T21:45:05.237Z,71.1
2018-01-21T22:00:04.927Z,70.8
2018-01-21T22:15:04.988Z,70.6
2018-01-21T22:30:04.855Z,70.9
2018-01-21T22:45:04.753Z,71.1
2018-01-21T23:00:05.507Z,71.5
2018-01-21T23:15:04.479Z,70.8
2018-01-21T23:30:05.642Z,71.9
2018-01-21T23:45:04.851Z,71.8
